createdAt,value
2023-02-22T00:00:43.014Z,7.73
2023-02-22T00:03:27.578Z,7.17
2023-02-22T00:05:59.945Z,9.07
2023-02-22T00:08:30.590Z,8.30
2023-02-22T00:11:02.776Z,8.13
2023-02-22T00:13:29.908Z,7.37
2023-02-22T00:16:00.530Z,8.57
2023-02-22T00:18:28.835Z,6.87
2023-02-22T00:21:00.119Z,6.73
2023-02-22T00:23:29.735Z,5.93
2023-02-22T00:25:57.815Z,6.57
2023-02-22T00:28:24.976Z,6.47
2023-02-22T00:30:52.269Z,7.00
2023-02-22T00:33:19.068Z,6.23
2023-02-22T00:35:46.062Z,6.77
2023-02-22T00:38:15.313Z,6.87
2023-02-22T00:40:42.425Z,6.50
2023-02-22T00:43:09.435Z,6.93
2023-02-22T00:45:37.340Z,6.73
2023-02-22T00:48:05.941Z,6.57
2023-02-22T00:50:33.424Z,7.23
2023-02-22T00:53:01.620Z,7.00
2023-02-22T00:55:32.816Z,7.60
2023-02-22T00:58:00.160Z,6.73
2023-02-22T01:00:29.680Z,6.37
2023-02-22T01:02:57.194Z,7.20
2023-02-22T01:05:27.471Z,7.00
2023-02-22T01:07:56.405Z,6.60
2023-02-22T01:10:25.410Z,6.30
2023-02-22T01:12:52.742Z,6.83
2023-02-22T01:15:24.114Z,6.33
2023-02-22T01:17:54.623Z,6.17
2023-02-22T01:20:23.364Z,6.60
2023-02-22T01:22:53.278Z,5.97
2023-02-22T01:25:23.031Z,6.23
2023-02-22T01:27:50.475Z,6.53
2023-02-22T01:30:21.869Z,6.00
2023-02-22T01:32:48.878Z,6.47
2023-02-22T01:35:18.511Z,5.97
2023-02-22T01:37:45.910Z,6.10
2023-02-22T01:40:21.279Z,5.70
2023-02-22T01:42:52.380Z,5.30
2023-02-22T01:45:32.765Z,5.87
2023-02-22T01:48:19.863Z,5.50
2023-02-22T01:50:57.495Z,5.97
2023-02-22T01:53:28.504Z,6.33
2023-02-22T01:55:56.571Z,6.10
2023-02-22T01:58:26.062Z,5.27
2023-02-22T02:00:52.776Z,6.50
2023-02-22T02:03:34.820Z,6.53
2023-02-22T02:06:05.243Z,6.57
2023-02-22T02:09:11.978Z,7.50
2023-02-22T02:11:40.708Z,8.63
2023-02-22T02:14:09.311Z,9.73
2023-02-22T02:16:42.088Z,8.63
2023-02-22T02:19:16.464Z,9.00
2023-02-22T02:22:14.627Z,8.63
2023-02-22T02:24:57.499Z,7.50
2023-02-22T02:27:46.224Z,6.53
2023-02-22T02:30:22.154Z,5.90
2023-02-22T02:33:11.942Z,6.40
2023-02-22T02:36:00.835Z,8.23
2023-02-22T02:38:45.619Z,6.87
2023-02-22T02:41:18.983Z,6.70
2023-02-22T02:44:00.323Z,9.40
2023-02-22T02:46:37.164Z,8.00
2023-02-22T02:49:15.022Z,7.07
2023-02-22T02:51:48.016Z,5.00
2023-02-22T02:54:16.112Z,5.53
2023-02-22T02:56:42.931Z,5.73
2023-02-22T02:59:31.095Z,6.20
2023-02-22T03:02:34.278Z,5.50
2023-02-22T03:05:23.534Z,4.80
2023-02-22T03:08:07.853Z,4.77
2023-02-22T03:10:56.546Z,4.87
2023-02-22T03:13:42.072Z,4.77
2023-02-22T03:16:30.554Z,5.67
2023-02-22T03:19:11.686Z,4.90
2023-02-22T03:22:00.309Z,5.50
2023-02-22T03:24:53.128Z,5.40
2023-02-22T03:27:34.135Z,5.07
2023-02-22T03:30:07.383Z,5.30
2023-02-22T03:32:39.355Z,5.40
2023-02-22T03:35:10.844Z,5.60
2023-02-22T03:37:50.662Z,5.57
2023-02-22T03:40:27.096Z,5.63
2023-02-22T03:43:07.070Z,5.93
2023-02-22T03:45:34.842Z,7.07
2023-02-22T03:48:30.443Z,5.67
2023-02-22T03:50:58.512Z,5.43
2023-02-22T03:53:25.780Z,5.00
2023-02-22T03:55:55.569Z,5.60
2023-02-22T03:58:24.254Z,5.23
2023-02-22T04:00:53.230Z,5.53
2023-02-22T04:03:21.704Z,5.57
2023-02-22T04:05:48.767Z,5.40
2023-02-22T04:08:16.855Z,5.63
2023-02-22T04:10:43.619Z,5.60
2023-02-22T04:13:10.797Z,5.80
2023-02-22T04:15:37.866Z,5.70
2023-02-22T04:18:05.958Z,6.00
2023-02-22T04:20:34.849Z,5.70
2023-02-22T04:23:01.686Z,5.03
2023-02-22T04:25:28.773Z,4.70
2023-02-22T04:27:55.487Z,5.17
2023-02-22T04:30:22.565Z,4.90
2023-02-22T04:32:49.554Z,5.50
2023-02-22T04:35:16.466Z,5.60
2023-02-22T04:37:43.198Z,5.33
2023-02-22T04:40:11.518Z,5.60
2023-02-22T04:42:39.717Z,5.30
2023-02-22T04:45:09.520Z,5.07
2023-02-22T04:47:37.290Z,4.60
2023-02-22T04:50:08.201Z,4.77
2023-02-22T04:52:35.058Z,4.57
2023-02-22T04:55:01.951Z,5.03
2023-02-22T04:57:29.966Z,5.87
2023-02-22T04:59:57.151Z,4.67
2023-02-22T05:02:24.049Z,5.10
2023-02-22T05:04:50.962Z,4.83
2023-02-22T05:07:18.059Z,5.03
2023-02-22T05:09:44.764Z,5.93
2023-02-22T05:12:11.528Z,4.97
2023-02-22T05:14:38.719Z,4.90
2023-02-22T05:17:05.584Z,4.67
2023-02-22T05:19:32.486Z,5.10
2023-02-22T05:21:59.245Z,4.83
2023-02-22T05:24:26.590Z,4.97
2023-02-22T05:26:53.583Z,5.20
2023-02-22T05:29:21.643Z,5.20
2023-02-22T05:31:49.641Z,4.90
2023-02-22T05:34:17.147Z,5.33
2023-02-22T05:36:44.047Z,4.93
2023-02-22T05:39:10.921Z,5.20
2023-02-22T05:41:37.793Z,4.77
2023-02-22T05:44:04.831Z,5.40
2023-02-22T05:46:31.539Z,4.83
2023-02-22T05:48:58.318Z,4.97
2023-02-22T05:51:25.167Z,5.40
2023-02-22T05:53:52.605Z,4.37
2023-02-22T05:56:27.653Z,5.03
2023-02-22T05:58:54.748Z,4.97
2023-02-22T06:01:22.095Z,5.53
2023-02-22T06:03:52.900Z,5.10
2023-02-22T06:06:22.261Z,5.33
2023-02-22T06:08:49.184Z,4.53
2023-02-22T06:11:16.327Z,5.17
2023-02-22T06:13:51.184Z,5.20
2023-02-22T06:16:18.679Z,6.03
2023-02-22T06:18:45.487Z,6.20
2023-02-22T06:21:12.227Z,7.47
2023-02-22T06:23:39.079Z,6.37
2023-02-22T06:26:06.081Z,6.17
2023-02-22T06:28:32.866Z,6.60
2023-02-22T06:30:59.603Z,7.13
2023-02-22T06:33:26.343Z,6.20
2023-02-22T06:35:53.227Z,6.67
2023-02-22T06:38:24.549Z,6.30
2023-02-22T06:40:51.904Z,5.97
2023-02-22T06:43:18.670Z,6.20
2023-02-22T06:45:45.659Z,5.90
2023-02-22T06:48:12.813Z,6.27
2023-02-22T06:50:39.573Z,6.53
2023-02-22T06:53:06.342Z,6.40
2023-02-22T06:55:38.387Z,7.17
2023-02-22T06:58:05.673Z,7.00
2023-02-22T07:00:33.181Z,6.90
2023-02-22T07:03:00.950Z,7.27
2023-02-22T07:05:28.854Z,7.13
2023-02-22T07:08:02.920Z,9.13
2023-02-22T07:10:31.934Z,7.70
2023-02-22T07:12:58.804Z,7.77
2023-02-22T07:15:27.920Z,7.17
2023-02-22T07:17:55.095Z,7.17
2023-02-22T07:20:22.732Z,5.90
2023-02-22T07:22:49.997Z,6.17
2023-02-22T07:25:17.223Z,6.10
2023-02-22T07:27:44.198Z,6.33
2023-02-22T07:30:19.791Z,5.97
2023-02-22T07:32:47.812Z,6.03
2023-02-22T07:35:20.160Z,6.30
2023-02-22T07:37:48.246Z,7.10
2023-02-22T07:40:16.827Z,12.50
2023-02-22T07:43:03.763Z,11.80
2023-02-22T07:45:34.803Z,9.77
2023-02-22T07:48:03.740Z,8.47
2023-02-22T07:50:32.300Z,8.73
2023-02-22T07:53:04.523Z,7.30
2023-02-22T07:55:32.701Z,7.13
2023-02-22T07:58:02.344Z,7.83
2023-02-22T08:00:30.609Z,8.43
2023-02-22T08:02:57.737Z,8.53
2023-02-22T08:05:26.975Z,8.13
2023-02-22T08:07:53.747Z,8.47
2023-02-22T08:10:23.341Z,9.23
2023-02-22T08:12:50.977Z,8.90
2023-02-22T08:15:22.407Z,7.20
2023-02-22T08:17:49.138Z,7.97
2023-02-22T08:20:16.084Z,8.27
2023-02-22T08:22:46.561Z,7.93
2023-02-22T08:25:15.596Z,7.37
2023-02-22T08:27:43.944Z,7.10
2023-02-22T08:30:16.902Z,6.23
2023-02-22T08:32:45.556Z,7.40
2023-02-22T08:35:13.813Z,10.70
2023-02-22T08:37:49.391Z,24.23
2023-02-22T08:40:21.452Z,22.60
2023-02-22T08:42:48.531Z,14.17
2023-02-22T08:45:16.047Z,12.83
2023-02-22T08:47:43.639Z,14.40
2023-02-22T08:50:19.308Z,18.17
2023-02-22T08:52:46.121Z,21.03
2023-02-22T08:55:12.942Z,20.27
2023-02-22T08:57:39.669Z,15.60
2023-02-22T09:00:07.269Z,14.07
2023-02-22T09:02:34.136Z,16.83
2023-02-22T09:05:00.965Z,13.60
2023-02-22T09:07:27.806Z,13.17
2023-02-22T09:09:54.674Z,10.80
2023-02-22T09:12:21.554Z,10.47
2023-02-22T09:14:48.348Z,11.37
2023-02-22T09:17:15.160Z,10.07
2023-02-22T09:19:42.200Z,9.23
2023-02-22T09:22:08.940Z,9.63
2023-02-22T09:24:36.151Z,9.13
2023-02-22T09:27:04.441Z,8.17
2023-02-22T09:29:31.484Z,7.73
2023-02-22T09:31:59.154Z,7.63
2023-02-22T09:34:29.769Z,7.47
2023-02-22T09:36:58.264Z,8.03
2023-02-22T09:39:25.700Z,7.60
2023-02-22T09:42:15.921Z,8.57
2023-02-22T09:44:53.629Z,9.20
2023-02-22T09:47:32.632Z,8.43
2023-02-22T09:50:18.306Z,32.00
2023-02-22T09:52:56.256Z,15.17
2023-02-22T09:55:39.190Z,11.03
2023-02-22T09:58:28.601Z,9.17
2023-02-22T10:01:01.040Z,9.23
2023-02-22T10:03:30.459Z,8.27
2023-02-22T10:06:04.728Z,7.90
2023-02-22T10:08:34.568Z,9.33
2023-02-22T10:11:22.364Z,8.10
2023-02-22T10:13:55.001Z,6.63
2023-02-22T10:16:34.165Z,6.30
2023-02-22T10:19:38.433Z,5.87
2023-02-22T10:22:17.516Z,4.87
2023-02-22T10:25:14.591Z,4.50
2023-02-22T10:28:13.502Z,4.27
2023-02-22T10:30:49.436Z,4.27
2023-02-22T10:33:20.893Z,4.57
2023-02-22T10:35:48.581Z,5.67
2023-02-22T10:38:24.769Z,5.00
2023-02-22T10:41:05.109Z,4.77
2023-02-22T10:43:32.851Z,5.00
2023-02-22T10:46:03.577Z,4.57
2023-02-22T10:48:35.482Z,5.00
2023-02-22T10:51:05.162Z,5.10
2023-02-22T10:53:33.152Z,4.80
2023-02-22T10:56:16.377Z,4.83
2023-02-22T10:59:05.918Z,5.37
2023-02-22T11:01:32.855Z,5.83
2023-02-22T11:04:16.059Z,5.13
2023-02-22T11:06:45.775Z,5.47
2023-02-22T11:09:24.078Z,5.20
2023-02-22T11:12:08.625Z,5.70
2023-02-22T11:14:35.358Z,5.27
2023-02-22T11:17:08.767Z,5.60
2023-02-22T11:19:38.280Z,5.47
2023-02-22T11:22:42.113Z,5.70
2023-02-22T11:25:17.890Z,5.43
2023-02-22T11:27:47.062Z,5.53
2023-02-22T11:30:27.026Z,5.33
2023-02-22T11:33:00.385Z,6.00
2023-02-22T11:35:35.401Z,5.73
2023-02-22T11:38:22.117Z,4.90
2023-02-22T11:41:08.164Z,5.77
2023-02-22T11:43:35.279Z,6.00
2023-02-22T11:46:32.723Z,6.20
2023-02-22T11:49:08.927Z,4.83
2023-02-22T11:52:06.627Z,5.13
2023-02-22T11:54:47.560Z,4.80
2023-02-22T11:57:46.396Z,4.93
2023-02-22T12:00:54.028Z,4.73
2023-02-22T12:03:35.936Z,4.33
2023-02-22T12:06:10.644Z,5.03
2023-02-22T12:08:55.255Z,5.40
2023-02-22T12:11:45.002Z,4.30
2023-02-22T12:14:34.161Z,4.80
2023-02-22T12:17:23.442Z,4.30
2023-02-22T12:20:28.645Z,4.47
2023-02-22T12:23:14.129Z,4.70
2023-02-22T12:25:58.657Z,3.97
2023-02-22T12:28:59.508Z,4.60
2023-02-22T12:31:35.357Z,5.07
2023-02-22T12:34:12.042Z,4.23
2023-02-22T12:36:53.562Z,3.93
2023-02-22T12:39:59.630Z,4.40
2023-02-22T12:42:49.687Z,4.33
2023-02-22T12:45:37.345Z,4.00
2023-02-22T12:48:52.410Z,4.37
2023-02-22T12:51:51.333Z,4.30
2023-02-22T12:54:25.521Z,4.50
2023-02-22T12:57:11.510Z,4.40
2023-02-22T12:59:53.414Z,4.03
2023-02-22T13:02:35.274Z,4.67
2023-02-22T13:05:02.894Z,4.30
2023-02-22T13:07:46.040Z,4.03
2023-02-22T13:10:28.483Z,4.07
2023-02-22T13:12:58.146Z,3.70
2023-02-22T13:15:37.311Z,4.03
2023-02-22T13:18:26.882Z,4.30
2023-02-22T13:21:02.412Z,3.70
2023-02-22T13:23:55.967Z,4.20
2023-02-22T13:26:29.850Z,3.80
2023-02-22T13:29:09.639Z,3.57
2023-02-22T13:31:57.652Z,3.97
2023-02-22T13:34:59.342Z,3.70
2023-02-22T13:37:53.077Z,3.37
2023-02-22T13:40:37.953Z,3.63
2023-02-22T13:43:43.257Z,3.70
2023-02-22T13:46:44.784Z,3.60
2023-02-22T13:49:50.827Z,3.33
2023-02-22T13:52:24.866Z,3.87
2023-02-22T13:54:56.299Z,4.07
2023-02-22T13:57:29.656Z,4.23
2023-02-22T14:00:23.047Z,3.53
2023-02-22T14:03:13.655Z,3.43
2023-02-22T14:05:44.765Z,3.60
2023-02-22T14:08:17.405Z,4.53
2023-02-22T14:10:44.653Z,3.47
2023-02-22T14:13:12.411Z,5.40
2023-02-22T14:16:08.178Z,4.47
2023-02-22T14:18:45.814Z,4.20
2023-02-22T14:21:22.093Z,4.17
2023-02-22T14:23:49.708Z,4.23
2023-02-22T14:26:26.596Z,4.23
2023-02-22T14:28:57.990Z,4.40
2023-02-22T14:31:36.836Z,4.83
2023-02-22T14:34:21.570Z,4.50
2023-02-22T14:37:01.067Z,4.70
2023-02-22T14:39:32.171Z,4.73
2023-02-22T14:42:14.669Z,4.60
2023-02-22T14:44:52.773Z,5.00
2023-02-22T14:47:41.149Z,5.00
2023-02-22T14:50:17.187Z,5.53
2023-02-22T14:52:48.740Z,4.93
2023-02-22T14:55:25.799Z,5.13
2023-02-22T14:58:35.838Z,4.50
2023-02-22T15:01:20.305Z,4.27
2023-02-22T15:03:51.478Z,4.93
2023-02-22T15:06:28.535Z,4.80
2023-02-22T15:09:25.085Z,4.47
2023-02-22T15:12:19.448Z,5.30
2023-02-22T15:14:48.487Z,4.97
2023-02-22T15:17:24.967Z,7.93
2023-02-22T15:19:52.737Z,5.47
2023-02-22T15:22:26.280Z,4.60
2023-02-22T15:25:06.407Z,5.10
2023-02-22T15:27:37.403Z,4.87
2023-02-22T15:30:16.522Z,4.23
2023-02-22T15:33:01.368Z,4.17
2023-02-22T15:35:31.649Z,4.03
2023-02-22T15:38:06.490Z,4.77
2023-02-22T15:40:35.478Z,4.07
2023-02-22T15:43:10.257Z,4.30
2023-02-22T15:45:42.953Z,4.73
2023-02-22T15:48:14.576Z,4.87
2023-02-22T15:51:00.649Z,4.53
2023-02-22T15:53:32.991Z,5.07
2023-02-22T15:56:02.549Z,5.50
2023-02-22T15:58:30.167Z,5.30
2023-02-22T16:01:14.247Z,5.47
2023-02-22T16:03:52.318Z,5.50
2023-02-22T16:06:30.546Z,4.90
2023-02-22T16:08:59.989Z,5.10
2023-02-22T16:11:34.666Z,4.40
2023-02-22T16:14:07.926Z,4.97
2023-02-22T16:16:41.618Z,4.20
2023-02-22T16:19:44.116Z,5.10
2023-02-22T16:22:33.734Z,4.40
2023-02-22T16:25:18.346Z,4.43
2023-02-22T16:28:06.469Z,4.77
2023-02-22T16:30:35.478Z,4.27
2023-02-22T16:33:13.607Z,4.63
2023-02-22T16:35:43.386Z,4.50
2023-02-22T16:38:16.884Z,4.53
2023-02-22T16:40:53.947Z,5.27
2023-02-22T16:43:26.104Z,6.87
2023-02-22T16:45:53.328Z,6.73
2023-02-22T16:48:29.939Z,5.57
2023-02-22T16:51:02.062Z,5.70
2023-02-22T16:53:31.813Z,5.63
2023-02-22T16:56:04.298Z,5.50
2023-02-22T16:58:34.911Z,5.27
2023-02-22T17:01:01.763Z,5.07
2023-02-22T17:03:28.596Z,5.73
2023-02-22T17:05:55.640Z,5.13
2023-02-22T17:08:22.697Z,5.67
2023-02-22T17:10:51.537Z,6.13
2023-02-22T17:13:26.751Z,6.17
2023-02-22T17:15:57.049Z,7.00
2023-02-22T17:18:28.616Z,7.30
2023-02-22T17:20:56.287Z,7.43
2023-02-22T17:23:24.092Z,6.33
2023-02-22T17:25:56.085Z,6.43
2023-02-22T17:28:24.893Z,6.00
2023-02-22T17:30:53.547Z,6.00
2023-02-22T17:33:26.690Z,6.63
2023-02-22T17:35:55.481Z,6.30
2023-02-22T17:38:22.999Z,8.03
2023-02-22T17:40:54.715Z,9.73
2023-02-22T17:43:22.896Z,9.50
2023-02-22T17:45:49.948Z,9.60
2023-02-22T17:48:18.178Z,11.40
2023-02-22T17:50:46.764Z,12.40
2023-02-22T17:53:14.118Z,11.33
2023-02-22T17:55:42.661Z,10.17
2023-02-22T17:58:14.781Z,12.47
2023-02-22T18:00:44.394Z,11.10
2023-02-22T18:03:15.429Z,11.30
2023-02-22T18:05:47.661Z,14.00
2023-02-22T18:08:15.406Z,10.77
2023-02-22T18:10:43.763Z,10.07
2023-02-22T18:13:16.799Z,12.77
2023-02-22T18:15:44.240Z,17.27
2023-02-22T18:18:11.487Z,15.70
2023-02-22T18:20:43.842Z,12.47
2023-02-22T18:23:19.503Z,11.07
2023-02-22T18:26:07.726Z,10.23
2023-02-22T18:28:37.660Z,10.63
2023-02-22T18:31:15.965Z,9.20
2023-02-22T18:33:47.694Z,10.37
2023-02-22T18:36:15.897Z,9.57
2023-02-22T18:38:43.770Z,10.67
2023-02-22T18:41:16.047Z,9.93
2023-02-22T18:43:43.592Z,10.80
2023-02-22T18:46:13.107Z,11.07
2023-02-22T18:48:40.042Z,12.27
2023-02-22T18:51:09.955Z,13.10
2023-02-22T18:53:38.087Z,12.53
2023-02-22T18:56:07.064Z,11.60
2023-02-22T18:58:33.989Z,10.27
2023-02-22T19:01:03.881Z,10.50
2023-02-22T19:03:32.399Z,11.33
2023-02-22T19:06:03.518Z,11.93
2023-02-22T19:08:32.605Z,12.77
2023-02-22T19:11:04.414Z,12.87
2023-02-22T19:13:32.391Z,13.33
2023-02-22T19:16:01.935Z,14.33
2023-02-22T19:18:28.767Z,14.00
2023-02-22T19:20:57.129Z,13.27
2023-02-22T19:23:24.067Z,15.20
2023-02-22T19:25:50.975Z,15.17
2023-02-22T19:28:18.038Z,16.43
2023-02-22T19:30:44.797Z,18.23
2023-02-22T19:33:11.640Z,18.47
2023-02-22T19:35:38.610Z,17.27
2023-02-22T19:38:05.369Z,15.00
2023-02-22T19:40:32.180Z,14.73
2023-02-22T19:42:58.903Z,14.77
2023-02-22T19:45:25.850Z,15.87
2023-02-22T19:47:55.947Z,15.97
2023-02-22T19:50:22.680Z,15.43
2023-02-22T19:52:49.622Z,16.60
2023-02-22T19:55:16.511Z,19.60
2023-02-22T19:57:50.130Z,15.83
2023-02-22T20:00:24.594Z,14.37
2023-02-22T20:03:05.661Z,14.33
2023-02-22T20:05:40.522Z,13.53
2023-02-22T20:08:07.690Z,12.57
2023-02-22T20:10:34.573Z,14.10
2023-02-22T20:13:01.920Z,13.50
2023-02-22T20:15:29.554Z,14.10
2023-02-22T20:17:57.891Z,14.53
2023-02-22T20:20:25.847Z,13.60
2023-02-22T20:22:53.296Z,16.17
2023-02-22T20:25:20.621Z,20.90
2023-02-22T20:27:47.442Z,18.13
2023-02-22T20:30:16.867Z,17.23
2023-02-22T20:32:43.875Z,15.20
2023-02-22T20:35:11.292Z,17.40
2023-02-22T20:37:40.398Z,18.47
2023-02-22T20:40:07.737Z,17.03
2023-02-22T20:42:34.575Z,15.87
2023-02-22T20:45:04.680Z,16.83
2023-02-22T20:47:32.036Z,17.10
2023-02-22T20:49:59.028Z,14.03
2023-02-22T20:52:25.904Z,14.73
2023-02-22T20:54:52.693Z,13.43
2023-02-22T20:57:19.449Z,14.10
2023-02-22T20:59:47.640Z,13.10
2023-02-22T21:02:14.422Z,12.80
2023-02-22T21:04:41.253Z,13.87
2023-02-22T21:07:08.121Z,13.43
2023-02-22T21:09:35.062Z,12.77
2023-02-22T21:12:01.859Z,12.03
2023-02-22T21:14:29.802Z,13.20
2023-02-22T21:16:56.564Z,12.70
2023-02-22T21:19:26.652Z,13.00
2023-02-22T21:21:59.014Z,13.27
2023-02-22T21:24:28.603Z,12.77
2023-02-22T21:26:58.597Z,13.27
2023-02-22T21:29:25.533Z,12.83
2023-02-22T21:31:52.493Z,13.27
2023-02-22T21:34:20.051Z,13.93
2023-02-22T21:36:47.356Z,13.93
2023-02-22T21:39:18.367Z,13.07
2023-02-22T21:41:50.678Z,13.40
2023-02-22T21:44:18.794Z,12.70
2023-02-22T21:46:48.826Z,11.83
2023-02-22T21:49:16.013Z,12.60
2023-02-22T21:51:44.714Z,12.83
2023-02-22T21:54:12.606Z,14.07
2023-02-22T21:56:41.834Z,13.60
2023-02-22T21:59:20.948Z,12.10
2023-02-22T22:01:55.810Z,13.60
2023-02-22T22:04:29.051Z,13.10
2023-02-22T22:06:58.303Z,13.33
2023-02-22T22:09:29.008Z,13.33
2023-02-22T22:11:58.449Z,13.10
2023-02-22T22:14:26.476Z,12.40
2023-02-22T22:16:58.469Z,12.87
2023-02-22T22:19:31.271Z,12.00
2023-02-22T22:21:58.575Z,13.77
2023-02-22T22:24:25.785Z,12.70
2023-02-22T22:26:55.866Z,13.50
2023-02-22T22:29:24.487Z,12.73
2023-02-22T22:31:52.077Z,12.57
2023-02-22T22:34:19.571Z,12.17
2023-02-22T22:36:46.770Z,11.37
2023-02-22T22:39:13.620Z,13.10
2023-02-22T22:41:41.763Z,12.73
2023-02-22T22:44:09.899Z,12.87
2023-02-22T22:46:41.021Z,12.23
2023-02-22T22:49:10.115Z,11.77
2023-02-22T22:51:37.455Z,13.17
2023-02-22T22:54:09.446Z,12.00
2023-02-22T22:56:38.047Z,11.60
2023-02-22T22:59:07.793Z,12.10
2023-02-22T23:01:39.912Z,11.97
2023-02-22T23:04:09.770Z,11.90
2023-02-22T23:06:42.323Z,12.07
2023-02-22T23:09:18.642Z,11.40
2023-02-22T23:11:50.725Z,12.37
2023-02-22T23:14:20.968Z,11.67
2023-02-22T23:16:49.198Z,9.80
2023-02-22T23:19:16.538Z,11.17
2023-02-22T23:21:46.344Z,12.13
2023-02-22T23:24:15.432Z,10.67
2023-02-22T23:26:43.222Z,10.60
2023-02-22T23:29:10.077Z,11.50
2023-02-22T23:31:39.645Z,10.17
2023-02-22T23:34:13.951Z,10.50
2023-02-22T23:36:46.996Z,11.70
2023-02-22T23:39:17.283Z,11.10
2023-02-22T23:41:44.181Z,10.30
2023-02-22T23:44:13.339Z,10.70
2023-02-22T23:46:41.268Z,10.90
2023-02-22T23:49:09.890Z,10.80
2023-02-22T23:51:44.580Z,10.73
2023-02-22T23:54:13.722Z,11.10
2023-02-22T23:56:47.176Z,10.07
2023-02-22T23:59:14.487Z,10.70
